| time (UTC) | temp F | wind direction | speed MPH | gust MPH | rain 1hr in | rain 24hr in | rain mn in | humidity % | barometer mb |
| 20260505213040 | 78 | 0 | 0.0 | 7.0 | 0.00 | 0.00 | 0.00 | 29 | 1008.9 |
| 20260505212521 | 78 | 0 | 0.0 | 13.0 | 0.00 | 0.00 | 0.00 | 28 | 1009.0 |
| 20260505212021 | 78 | 34 | 1.0 | 13.0 | 0.00 | 0.00 | 0.00 | 30 | 1009.2 |
| 20260505211540 | 79 | 338 | 2.0 | 11.0 | 0.00 | 0.00 | 0.00 | 30 | 1009.4 |
| 20260505211021 | 78 | 0 | 0.0 | 9.0 | 0.00 | 0.00 | 0.00 | 29 | 1009.2 |
| 20260505210520 | 78 | 0 | 0.0 | 10.0 | 0.00 | 0.00 | 0.00 | 28 | 1009.4 |
| 20260505210036 | 78 | 0 | 1.0 | 10.0 | 0.00 | 0.00 | 0.00 | 28 | 1009.5 |
| 20260505205522 | 78 | 0 | 2.0 | 10.0 | 0.00 | 0.00 | 0.00 | 30 | 1009.4 |
| 20260505205020 | 79 | 0 | 0.0 | 4.0 | 0.00 | 0.00 | 0.00 | 30 | 1009.5 |
| 20260505204536 | 78 | 0 | 0.0 | 7.0 | 0.00 | 0.00 | 0.00 | 29 | 1009.5 |
| 20260505204018 | 78 | 328 | 0.0 | 7.0 | 0.00 | 0.00 | 0.00 | 30 | 1009.5 |
| 20260505203519 | 78 | 0 | 0.0 | 6.0 | 0.00 | 0.00 | 0.00 | 29 | 1009.6 |
| 20260505203043 | 78 | 0 | 0.0 | 3.0 | 0.00 | 0.00 | 0.00 | 30 | 1009.6 |
| 20260505202521 | 78 | 0 | 0.0 | 5.0 | 0.00 | 0.00 | 0.00 | 29 | 1009.6 |
| 20260505202020 | 77 | 0 | 0.0 | 5.0 | 0.00 | 0.00 | 0.00 | 30 | 1009.7 |
| 20260505201550 | 77 | 0 | 0.0 | 5.0 | 0.00 | 0.00 | 0.00 | 32 | 1009.7 |
| 20260505201021 | 77 | 0 | 0.0 | 5.0 | 0.00 | 0.00 | 0.00 | 31 | 1009.8 |
| 20260505200520 | 77 | 207 | 0.0 | 4.0 | 0.00 | 0.00 | 0.00 | 30 | 1009.9 |
| 20260505200041 | 77 | 0 | 0.0 | 2.0 | 0.00 | 0.00 | 0.00 | 31 | 1009.9 |
| 20260505195519 | 76 | 0 | 0.0 | 7.0 | 0.00 | 0.00 | 0.00 | 33 | 1009.9 |
| 20260505195019 | 76 | 0 | 1.0 | 7.0 | 0.00 | 0.00 | 0.00 | 31 | 1010.0 |
| 20260505194537 | 76 | 0 | 0.0 | 6.0 | 0.00 | 0.00 | 0.00 | 30 | 1009.9 |
| 20260505194022 | 76 | 0 | 0.0 | 1.0 | 0.00 | 0.00 | 0.00 | 29 | 1010.1 |
| 20260505193520 | 76 | 0 | 0.0 | 5.0 | 0.00 | 0.00 | 0.00 | 30 | 1010.0 |
| 20260505193036 | 76 | 0 | 0.0 | 5.0 | 0.00 | 0.00 | 0.00 | 29 | 1010.1 |
| 20260505192523 | 76 | 0 | 0.0 | 1.0 | 0.00 | 0.00 | 0.00 | 30 | 1010.1 |
| 20260505192020 | 75 | 0 | 0.0 | 2.0 | 0.00 | 0.00 | 0.00 | 32 | 1010.1 |
| 20260505191537 | 75 | 0 | 0.0 | 4.0 | 0.00 | 0.00 | 0.00 | 32 | 1010.2 |
| 20260505191020 | 74 | 248 | 0.0 | 7.0 | 0.00 | 0.00 | 0.00 | 30 | 1010.2 |
| 20260505190522 | 74 | 251 | 0.0 | 7.0 | 0.00 | 0.00 | 0.00 | 30 | 1010.2 |
| 20260505190050 | 74 | 0 | 0.0 | 2.0 | 0.00 | 0.00 | 0.00 | 29 | 1010.3 |
| 20260505185520 | 74 | 0 | 0.0 | 3.0 | 0.00 | 0.00 | 0.00 | 30 | 1010.3 |
| 20260505185020 | 73 | 0 | 0.0 | 5.0 | 0.00 | 0.00 | 0.00 | 33 | 1010.4 |
| 20260505184544 | 73 | 0 | 0.0 | 5.0 | 0.00 | 0.00 | 0.00 | 32 | 1010.4 |
| 20260505184018 | 73 | 0 | 1.0 | 6.0 | 0.00 | 0.00 | 0.00 | 30 | 1010.5 |
| 20260505183519 | 73 | 0 | 0.0 | 6.0 | 0.00 | 0.00 | 0.00 | 31 | 1010.5 |
| 20260505183055 | 73 | 0 | 0.0 | 2.0 | 0.00 | 0.00 | 0.00 | 34 | 1010.6 |
| 20260505182520 | 73 | 0 | 0.0 | 4.0 | 0.00 | 0.00 | 0.00 | 32 | 1010.7 |
| 20260505182019 | 73 | 0 | 0.0 | 4.0 | 0.00 | 0.00 | 0.00 | 34 | 1010.7 |
| 20260505181535 | 73 | 0 | 0.0 | 3.0 | 0.00 | 0.00 | 0.00 | 33 | 1010.7 |
| 20260505181019 | 73 | 0 | 0.0 | 3.0 | 0.00 | 0.00 | 0.00 | 34 | 1010.6 |
| 20260505180519 | 73 | 0 | 0.0 | 2.0 | 0.00 | 0.00 | 0.00 | 32 | 1010.7 |
| 20260505180045 | 73 | 0 | 0.0 | 1.0 | 0.00 | 0.00 | 0.00 | 32 | 1010.8 |
| 20260505175520 | 72 | 0 | 0.0 | 1.0 | 0.00 | 0.00 | 0.00 | 34 | 1010.8 |
| 20260505175023 | 72 | 0 | 0.0 | 3.0 | 0.00 | 0.00 | 0.00 | 32 | 1010.8 |
| 20260505174543 | 72 | 0 | 0.0 | 3.0 | 0.00 | 0.00 | 0.00 | 33 | 1010.8 |
| 20260505174023 | 72 | 0 | 0.0 | 4.0 | 0.00 | 0.00 | 0.00 | 34 | 1010.9 |
| 20260505173519 | 71 | 0 | 0.0 | 4.0 | 0.00 | 0.00 | 0.00 | 32 | 1010.9 |
| 20260505173049 | 71 | 0 | 0.0 | 5.0 | 0.00 | 0.00 | 0.00 | 32 | 1010.9 |
| 20260505172522 | 71 | 0 | 0.0 | 5.0 | 0.00 | 0.00 | 0.00 | 34 | 1010.9 |
| 20260505172025 | 71 | 0 | 0.0 | 3.0 | 0.00 | 0.00 | 0.00 | 31 | 1010.9 |
| 20260505171545 | 71 | 200 | 0.0 | 3.0 | 0.00 | 0.00 | 0.00 | 33 | 1010.8 |
| 20260505171023 | 71 | 198 | 0.0 | 4.0 | 0.00 | 0.00 | 0.00 | 33 | 1010.8 |
| 20260505170520 | 71 | 0 | 0.0 | 5.0 | 0.00 | 0.00 | 0.00 | 33 | 1010.8 |
| 20260505170038 | 70 | 0 | 0.0 | 5.0 | 0.00 | 0.00 | 0.00 | 33 | 1010.7 |
| 20260505165525 | 70 | 156 | 0.0 | 7.0 | 0.00 | 0.00 | 0.00 | 33 | 1010.6 |
| 20260505165022 | 70 | 0 | 0.0 | 7.0 | 0.00 | 0.00 | 0.00 | 33 | 1010.6 |
| 20260505164537 | 70 | 0 | 0.0 | 4.0 | 0.00 | 0.00 | 0.00 | 35 | 1010.6 |
| 20260505164022 | 70 | 217 | 0.0 | 5.0 | 0.00 | 0.00 | 0.00 | 34 | 1010.6 |
| 20260505163521 | 69 | 0 | 0.0 | 5.0 | 0.00 | 0.00 | 0.00 | 36 | 1010.6 |
| 20260505163042 | 69 | 0 | 0.0 | 7.0 | 0.00 | 0.00 | 0.00 | 36 | 1010.6 |
| 20260505162524 | 68 | 0 | 0.0 | 7.0 | 0.00 | 0.00 | 0.00 | 36 | 1010.5 |
| 20260505162020 | 68 | 0 | 0.0 | 8.0 | 0.00 | 0.00 | 0.00 | 36 | 1010.5 |
| 20260505161546 | 68 | 0 | 0.0 | 8.0 | 0.00 | 0.00 | 0.00 | 37 | 1010.4 |
| 20260505161023 | 67 | 0 | 0.0 | 5.0 | 0.00 | 0.00 | 0.00 | 37 | 1010.3 |
| 20260505160525 | 67 | 0 | 0.0 | 5.0 | 0.00 | 0.00 | 0.00 | 38 | 1010.3 |
| 20260505153037 | 64 | 0 | 1.0 | 9.0 | 0.00 | 0.00 | 0.00 | 42 | 1009.7 |
| 20260505152523 | 64 | 244 | 1.0 | 9.0 | 0.00 | 0.00 | 0.00 | 44 | 1009.8 |
| 20260505152021 | 63 | 0 | 0.0 | 8.0 | 0.00 | 0.00 | 0.00 | 50 | 1009.8 |
| 20260505151538 | 62 | 242 | 1.0 | 9.0 | 0.00 | 0.00 | 0.00 | 51 | 1009.8 |
| 20260505151022 | 61 | 0 | 1.0 | 9.0 | 0.00 | 0.00 | 0.00 | 52 | 1009.8 |
| 20260505150522 | 60 | 0 | 0.0 | 4.0 | 0.00 | 0.00 | 0.00 | 55 | 1009.9 |
| 20260505140518 | 55 | 142 | 0.0 | 3.0 | 0.00 | 0.00 | 0.00 | 65 | 1009.3 |
| 20260505125019 | 49 | 0 | 0.0 | 0.0 | 0.00 | 0.00 | 0.00 | 74 | 1008.1 |
| 20260505124539 | 50 | 0 | 0.0 | 0.0 | 0.00 | 0.00 | 0.00 | 73 | 1008.0 |
| 20260505124020 | 50 | 0 | 0.0 | 0.0 | 0.00 | 0.00 | 0.00 | 72 | 1008.0 |
| 20260505123520 | 50 | 0 | 0.0 | 0.0 | 0.00 | 0.00 | 0.00 | 72 | 1008.1 |
| 20260505123036 | 50 | 0 | 0.0 | 0.0 | 0.00 | 0.00 | 0.00 | 71 | 1008.0 |
| 20260505122520 | 50 | 0 | 0.0 | 0.0 | 0.00 | 0.00 | 0.00 | 70 | 1007.8 |
| 20260505122021 | 51 | 0 | 0.0 | 0.0 | 0.00 | 0.00 | 0.00 | 68 | 1007.7 |
| 20260505121539 | 51 | 0 | 0.0 | 0.0 | 0.00 | 0.00 | 0.00 | 67 | 1007.6 |
| 20260505121020 | 51 | 0 | 0.0 | 0.0 | 0.00 | 0.00 | 0.00 | 67 | 1007.4 |
| 20260505120520 | 52 | 0 | 0.0 | 0.0 | 0.00 | 0.00 | 0.00 | 66 | 1007.3 |
| 20260505120059 | 52 | 0 | 0.0 | 0.0 | 0.00 | 0.00 | 0.00 | 65 | 1007.2 |
| 20260505115523 | 52 | 0 | 0.0 | 0.0 | 0.00 | 0.00 | 0.00 | 64 | 1007.3 |
| 20260505115019 | 52 | 0 | 0.0 | 0.0 | 0.00 | 0.00 | 0.00 | 64 | 1007.1 |
| 20260505114538 | 53 | 0 | 0.0 | 0.0 | 0.00 | 0.00 | 0.00 | 63 | 1007.1 |
| 20260505114019 | 53 | 0 | 0.0 | 0.0 | 0.00 | 0.00 | 0.00 | 62 | 1007.1 |
| 20260505113520 | 53 | 0 | 0.0 | 0.0 | 0.00 | 0.00 | 0.00 | 62 | 1006.9 |
| 20260505113043 | 53 | 0 | 0.0 | 0.0 | 0.00 | 0.00 | 0.00 | 62 | 1006.9 |
| 20260505112524 | 53 | 0 | 0.0 | 0.0 | 0.00 | 0.00 | 0.00 | 61 | 1006.8 |
| 20260505112019 | 54 | 0 | 0.0 | 0.0 | 0.00 | 0.00 | 0.00 | 61 | 1006.8 |
| 20260505111538 | 54 | 0 | 0.0 | 0.0 | 0.00 | 0.00 | 0.00 | 60 | 1006.6 |
| 20260505111019 | 55 | 0 | 0.0 | 0.0 | 0.00 | 0.00 | 0.00 | 61 | 1006.5 |
| 20260505110521 | 55 | 0 | 0.0 | 0.0 | 0.00 | 0.00 | 0.00 | 57 | 1006.4 |
| 20260505102021 | 58 | 0 | 0.0 | 1.0 | 0.00 | 0.00 | 0.00 | 51 | 1005.9 |
| 20260505101540 | 58 | 0 | 0.0 | 4.0 | 0.00 | 0.00 | 0.00 | 51 | 1005.8 |
| 20260505101019 | 58 | 0 | 0.0 | 4.0 | 0.00 | 0.00 | 0.00 | 51 | 1005.8 |
| 20260505100522 | 58 | 0 | 0.0 | 0.0 | 0.00 | 0.00 | 0.00 | 50 | 1005.7 |
| 20260505100041 | 59 | 0 | 0.0 | 0.0 | 0.00 | 0.00 | 0.00 | 49 | 1005.6 |
| 20260505095520 | 59 | 0 | 0.0 | 1.0 | 0.00 | 0.00 | 0.00 | 49 | 1005.7 |
| 20260505095024 | 59 | 0 | 0.0 | 4.0 | 0.00 | 0.00 | 0.00 | 48 | 1005.6 |
| 20260505094536 | 59 | 0 | 0.0 | 5.0 | 0.00 | 0.00 | 0.00 | 48 | 1005.6 |
| 20260505094020 | 59 | 306 | 0.0 | 5.0 | 0.00 | 0.00 | 0.00 | 48 | 1005.6 |
| 20260505093520 | 59 | 0 | 0.0 | 3.0 | 0.00 | 0.00 | 0.00 | 48 | 1005.5 |
| 20260505093041 | 59 | 0 | 0.0 | 0.0 | 0.00 | 0.00 | 0.00 | 48 | 1005.5 |
| 20260505092519 | 59 | 0 | 0.0 | 0.0 | 0.00 | 0.00 | 0.00 | 47 | 1005.4 |
| 20260505092018 | 59 | 0 | 0.0 | 0.0 | 0.00 | 0.00 | 0.00 | 47 | 1005.4 |
| 20260505091543 | 60 | 0 | 0.0 | 0.0 | 0.00 | 0.00 | 0.00 | 47 | 1005.4 |
| 20260505091017 | 60 | 0 | 0.0 | 0.0 | 0.00 | 0.00 | 0.00 | 46 | 1005.2 |
| 20260505090520 | 60 | 0 | 0.0 | 0.0 | 0.00 | 0.00 | 0.00 | 46 | 1005.1 |
| 20260505090045 | 60 | 0 | 0.0 | 0.0 | 0.00 | 0.00 | 0.00 | 45 | 1005.2 |
| 20260505085522 | 61 | 0 | 0.0 | 0.0 | 0.00 | 0.00 | 0.00 | 44 | 1005.1 |
| 20260505085020 | 61 | 0 | 0.0 | 2.0 | 0.00 | 0.00 | 0.00 | 44 | 1005.1 |
| 20260505084541 | 61 | 0 | 0.0 | 3.0 | 0.00 | 0.00 | 0.00 | 43 | 1005.2 |
| 20260505084024 | 62 | 0 | 0.0 | 9.0 | 0.00 | 0.00 | 0.00 | 43 | 1005.1 |
| 20260505083519 | 62 | 308 | 0.0 | 9.0 | 0.00 | 0.00 | 0.00 | 43 | 1005.1 |
| 20260505083041 | 62 | 315 | 0.0 | 4.0 | 0.00 | 0.00 | 0.00 | 43 | 1004.9 |
| 20260505082520 | 62 | 0 | 1.0 | 4.0 | 0.00 | 0.00 | 0.00 | 43 | 1005.0 |
| 20260505082019 | 62 | 0 | 0.0 | 2.0 | 0.00 | 0.00 | 0.00 | 42 | 1004.9 |
| 20260505081540 | 62 | 0 | 0.0 | 7.0 | 0.00 | 0.00 | 0.00 | 42 | 1005.0 |
| 20260505081021 | 63 | 0 | 0.0 | 7.0 | 0.00 | 0.00 | 0.00 | 42 | 1005.0 |
| 20260505080523 | 63 | 0 | 0.0 | 5.0 | 0.00 | 0.00 | 0.00 | 41 | 1005.0 |
| 20260505080039 | 63 | 0 | 0.0 | 4.0 | 0.00 | 0.00 | 0.00 | 41 | 1004.9 |
| 20260505075520 | 63 | 0 | 0.0 | 3.0 | 0.00 | 0.00 | 0.00 | 41 | 1005.0 |
| 20260505075020 | 63 | 0 | 0.0 | 3.0 | 0.00 | 0.00 | 0.00 | 41 | 1005.0 |
| 20260505074542 | 63 | 0 | 0.0 | 3.0 | 0.00 | 0.00 | 0.00 | 41 | 1005.0 |
| 20260505074022 | 64 | 0 | 0.0 | 3.0 | 0.00 | 0.00 | 0.00 | 41 | 1005.0 |
| 20260505073519 | 64 | 0 | 0.0 | 8.0 | 0.00 | 0.00 | 0.00 | 40 | 1005.0 |
| 20260505073057 | 64 | 0 | 0.0 | 8.0 | 0.00 | 0.00 | 0.00 | 40 | 1005.0 |
| 20260505072523 | 64 | 0 | 1.0 | 8.0 | 0.00 | 0.00 | 0.00 | 40 | 1004.8 |
| 20260505072022 | 64 | 0 | 0.0 | 8.0 | 0.00 | 0.00 | 0.00 | 39 | 1004.9 |
| 20260505071540 | 65 | 322 | 0.0 | 8.0 | 0.00 | 0.00 | 0.00 | 39 | 1004.8 |
| 20260505071023 | 65 | 293 | 0.0 | 6.0 | 0.00 | 0.00 | 0.00 | 39 | 1004.8 |
| 20260505070521 | 65 | 325 | 1.0 | 7.0 | 0.00 | 0.00 | 0.00 | 39 | 1004.8 |
| 20260505070040 | 65 | 312 | 0.0 | 7.0 | 0.00 | 0.00 | 0.00 | 39 | 1004.7 |
| 20260505065522 | 65 | 0 | 0.0 | 5.0 | 0.00 | 0.00 | 0.00 | 39 | 1004.7 |
| 20260505065022 | 65 | 0 | 0.0 | 5.0 | 0.00 | 0.00 | 0.00 | 39 | 1004.7 |
| 20260505064542 | 65 | 313 | 1.0 | 5.0 | 0.00 | 0.00 | 0.00 | 39 | 1004.6 |
| 20260505064022 | 65 | 0 | 0.0 | 2.0 | 0.00 | 0.00 | 0.00 | 39 | 1004.6 |
| 20260505063521 | 65 | 0 | 0.0 | 1.0 | 0.00 | 0.00 | 0.00 | 38 | 1004.5 |
| 20260505063037 | 66 | 0 | 0.0 | 6.0 | 0.00 | 0.00 | 0.00 | 38 | 1004.5 |
| 20260505062522 | 66 | 0 | 0.0 | 6.0 | 0.00 | 0.00 | 0.00 | 37 | 1004.5 |
| 20260505062024 | 67 | 0 | 0.0 | 6.0 | 0.00 | 0.00 | 0.00 | 37 | 1004.6 |
| 20260505061550 | 67 | 0 | 1.0 | 6.0 | 0.00 | 0.00 | 0.00 | 36 | 1004.5 |
| 20260505061022 | 67 | 308 | 0.0 | 5.0 | 0.00 | 0.00 | 0.00 | 36 | 1004.4 |
| 20260505060520 | 67 | 352 | 0.0 | 5.0 | 0.00 | 0.00 | 0.00 | 36 | 1004.5 |
| 20260505060042 | 67 | 0 | 0.0 | 8.0 | 0.00 | 0.00 | 0.00 | 36 | 1004.4 |
| 20260505055522 | 67 | 0 | 1.0 | 8.0 | 0.00 | 0.00 | 0.00 | 36 | 1004.3 |
| 20260505055022 | 67 | 0 | 0.0 | 10.0 | 0.00 | 0.00 | 0.00 | 36 | 1004.3 |
| 20260505054601 | 67 | 121 | 2.0 | 10.0 | 0.00 | 0.00 | 0.00 | 35 | 1004.2 |
| 20260505054019 | 67 | 0 | 1.0 | 7.0 | 0.00 | 0.00 | 0.00 | 35 | 1004.2 |
| 20260505053520 | 67 | 0 | 0.0 | 4.0 | 0.00 | 0.00 | 0.00 | 35 | 1004.2 |
| 20260505053048 | 67 | 0 | 0.0 | 4.0 | 0.00 | 0.00 | 0.00 | 35 | 1004.2 |
| 20260505052522 | 67 | 0 | 0.0 | 4.0 | 0.00 | 0.00 | 0.00 | 35 | 1004.1 |
| 20260505052023 | 67 | 0 | 0.0 | 4.0 | 0.00 | 0.00 | 0.00 | 35 | 1004.2 |
| 20260505051540 | 67 | 351 | 0.0 | 5.0 | 0.00 | 0.00 | 0.00 | 35 | 1004.2 |
| 20260505051026 | 68 | 0 | 0.0 | 5.0 | 0.00 | 0.00 | 0.00 | 35 | 1004.3 |
| 20260505050522 | 68 | 0 | 0.0 | 5.0 | 0.00 | 0.00 | 0.00 | 35 | 1004.3 |
| 20260505041538 | 68 | 0 | 0.0 | 4.0 | 0.00 | 0.00 | 0.00 | 37 | 1004.1 |
| 20260505041020 | 69 | 308 | 1.0 | 4.0 | 0.00 | 0.00 | 0.00 | 36 | 1004.0 |
| 20260505040519 | 69 | 0 | 0.0 | 0.0 | 0.00 | 0.00 | 0.00 | 35 | 1004.0 |
| 20260505040037 | 70 | 0 | 0.0 | 0.0 | 0.00 | 0.00 | 0.00 | 35 | 1004.0 |
| 20260505035520 | 70 | 0 | 0.0 | 2.0 | 0.00 | 0.00 | 0.00 | 34 | 1003.9 |
| 20260505035020 | 70 | 0 | 0.0 | 4.0 | 0.00 | 0.00 | 0.00 | 34 | 1003.9 |
| 20260505034535 | 71 | 0 | 0.0 | 4.0 | 0.00 | 0.00 | 0.00 | 34 | 1003.8 |
| 20260505034022 | 71 | 340 | 0.0 | 7.0 | 0.00 | 0.00 | 0.00 | 33 | 1003.6 |
| 20260505033518 | 71 | 0 | 0.0 | 7.0 | 0.00 | 0.00 | 0.00 | 33 | 1003.5 |
| 20260505033039 | 71 | 0 | 1.0 | 7.0 | 0.00 | 0.00 | 0.00 | 33 | 1003.5 |
| 20260505032520 | 71 | 0 | 0.0 | 8.0 | 0.00 | 0.00 | 0.00 | 33 | 1003.5 |
| 20260505032017 | 72 | 0 | 0.0 | 8.0 | 0.00 | 0.00 | 0.00 | 34 | 1003.4 |
| 20260505031556 | 72 | 298 | 0.0 | 5.0 | 0.00 | 0.00 | 0.00 | 34 | 1003.3 |
| 20260505031018 | 73 | 0 | 0.0 | 4.0 | 0.00 | 0.00 | 0.00 | 34 | 1003.3 |
| 20260505030520 | 73 | 0 | 0.0 | 4.0 | 0.00 | 0.00 | 0.00 | 33 | 1003.1 |
| 20260505030038 | 73 | 0 | 0.0 | 7.0 | 0.00 | 0.00 | 0.00 | 33 | 1003.2 |
| 20260505025520 | 74 | 0 | 0.0 | 7.0 | 0.00 | 0.00 | 0.00 | 32 | 1003.2 |
| 20260505025019 | 74 | 0 | 0.0 | 4.0 | 0.00 | 0.00 | 0.00 | 32 | 1003.1 |
| 20260505024546 | 75 | 0 | 0.0 | 5.0 | 0.00 | 0.00 | 0.00 | 31 | 1003.2 |
| 20260505024019 | 75 | 0 | 0.0 | 5.0 | 0.00 | 0.00 | 0.00 | 31 | 1003.1 |
| 20260505023519 | 75 | 0 | 0.0 | 5.0 | 0.00 | 0.00 | 0.00 | 30 | 1003.1 |
| 20260505023037 | 76 | 0 | 0.0 | 9.0 | 0.00 | 0.00 | 0.00 | 29 | 1003.1 |
| 20260505022519 | 76 | 0 | 0.0 | 9.0 | 0.00 | 0.00 | 0.00 | 29 | 1003.0 |
| 20260505022020 | 76 | 0 | 1.0 | 9.0 | 0.00 | 0.00 | 0.00 | 29 | 1003.0 |
| 20260505021536 | 77 | 0 | 0.0 | 8.0 | 0.00 | 0.00 | 0.00 | 29 | 1003.0 |
| 20260505021020 | 77 | 117 | 0.0 | 11.0 | 0.00 | 0.00 | 0.00 | 29 | 1002.9 |
| 20260505020520 | 77 | 318 | 2.0 | 11.0 | 0.00 | 0.00 | 0.00 | 29 | 1002.8 |
| 20260505020041 | 77 | 0 | 0.0 | 8.0 | 0.00 | 0.00 | 0.00 | 28 | 1002.9 |
| 20260505015519 | 78 | 345 | 2.0 | 7.0 | 0.00 | 0.00 | 0.00 | 27 | 1003.0 |
| 20260505015021 | 78 | 314 | 0.0 | 5.0 | 0.00 | 0.00 | 0.00 | 26 | 1003.0 |
| 20260505014539 | 78 | 0 | 0.0 | 6.0 | 0.00 | 0.00 | 0.00 | 26 | 1003.0 |
| 20260505014020 | 78 | 0 | 0.0 | 9.0 | 0.00 | 0.00 | 0.00 | 26 | 1003.0 |
| 20260505013520 | 79 | 323 | 1.0 | 10.0 | 0.00 | 0.00 | 0.00 | 26 | 1003.1 |
| 20260505013036 | 79 | 329 | 0.0 | 10.0 | 0.00 | 0.00 | 0.00 | 25 | 1003.0 |
| 20260505012520 | 79 | 309 | 1.0 | 8.0 | 0.00 | 0.00 | 0.00 | 25 | 1003.1 |
| 20260505012019 | 79 | 0 | 1.0 | 11.0 | 0.00 | 0.00 | 0.00 | 25 | 1003.2 |
| 20260505011538 | 79 | 327 | 3.0 | 11.0 | 0.00 | 0.00 | 0.00 | 24 | 1003.2 |
| 20260505011022 | 79 | 0 | 0.0 | 10.0 | 0.00 | 0.00 | 0.00 | 24 | 1003.3 |
| 20260505010522 | 79 | 0 | 0.0 | 10.0 | 0.00 | 0.00 | 0.00 | 24 | 1003.3 |
| 20260505010036 | 80 | 0 | 1.0 | 10.0 | 0.00 | 0.00 | 0.00 | 24 | 1003.3 |
| 20260505005519 | 80 | 0 | 0.0 | 12.0 | 0.00 | 0.00 | 0.00 | 23 | 1003.3 |
| 20260505005019 | 80 | 0 | 2.0 | 12.0 | 0.00 | 0.00 | 0.00 | 23 | 1003.5 |
| 20260505004548 | 80 | 304 | 1.0 | 8.0 | 0.00 | 0.00 | 0.00 | 23 | 1003.4 |
| 20260505004018 | 81 | 0 | 1.0 | 8.0 | 0.00 | 0.00 | 0.00 | 22 | 1003.5 |
| 20260505003519 | 81 | 0 | 1.0 | 8.0 | 0.00 | 0.00 | 0.00 | 23 | 1003.6 |
| 20260505003042 | 81 | 0 | 1.0 | 13.0 | 0.00 | 0.00 | 0.00 | 22 | 1003.5 |
| 20260505002521 | 81 | 288 | 3.0 | 13.0 | 0.00 | 0.00 | 0.00 | 22 | 1003.5 |
| 20260505002022 | 82 | 0 | 1.0 | 10.0 | 0.00 | 0.00 | 0.00 | 22 | 1003.6 |
| 20260505001540 | 82 | 0 | 0.0 | 10.0 | 0.00 | 0.00 | 0.00 | 21 | 1003.7 |
| 20260505001022 | 83 | 0 | 1.0 | 8.0 | 0.00 | 0.00 | 0.00 | 20 | 1003.6 |
| 20260505000518 | 83 | 0 | 3.0 | 8.0 | 0.00 | 0.00 | 0.00 | 17 | 1003.7 |
| 20260505000055 | 83 | 0 | 0.0 | 9.0 | 0.00 | 0.00 | 0.00 | 18 | 1003.7 |
| 20260504235519 | 83 | 59 | 2.0 | 9.0 | 0.00 | 0.00 | 0.00 | 17 | 1003.7 |
| 20260504235020 | 83 | 299 | 1.0 | 7.0 | 0.00 | 0.00 | 0.00 | 17 | 1003.9 |
| 20260504234543 | 84 | 325 | 1.0 | 6.0 | 0.00 | 0.00 | 0.00 | 17 | 1003.9 |
| 20260504234022 | 84 | 0 | 0.0 | 9.0 | 0.00 | 0.00 | 0.00 | 19 | 1003.9 |
| 20260504233520 | 84 | 0 | 0.0 | 9.0 | 0.00 | 0.00 | 0.00 | 18 | 1003.9 |
| 20260504233041 | 84 | 0 | 1.0 | 9.0 | 0.00 | 0.00 | 0.00 | 17 | 1004.1 |
| 20260504232519 | 84 | 317 | 0.0 | 10.0 | 0.00 | 0.00 | 0.00 | 17 | 1004.2 |
| 20260504232019 | 84 | 0 | 0.0 | 10.0 | 0.00 | 0.00 | 0.00 | 19 | 1004.2 |
| 20260504231539 | 83 | 0 | 0.0 | 10.0 | 0.00 | 0.00 | 0.00 | 18 | 1004.3 |
| 20260504231019 | 83 | 313 | 3.0 | 9.0 | 0.00 | 0.00 | 0.00 | 19 | 1004.3 |
| 20260504230519 | 83 | 344 | 2.0 | 11.0 | 0.00 | 0.00 | 0.00 | 18 | 1004.4 |
| 20260504230044 | 83 | 82 | 1.0 | 11.0 | 0.00 | 0.00 | 0.00 | 19 | 1004.4 |
| 20260504225523 | 83 | 333 | 1.0 | 11.0 | 0.00 | 0.00 | 0.00 | 17 | 1004.5 |
| 20260504225020 | 83 | 0 | 0.0 | 11.0 | 0.00 | 0.00 | 0.00 | 20 | 1004.5 |
| 20260504224536 | 83 | 343 | 2.0 | 12.0 | 0.00 | 0.00 | 0.00 | 18 | 1004.5 |
| 20260504224020 | 83 | 284 | 3.0 | 12.0 | 0.00 | 0.00 | 0.00 | 19 | 1004.5 |
| 20260504223519 | 83 | 339 | 2.0 | 9.0 | 0.00 | 0.00 | 0.00 | 20 | 1004.6 |
| 20260504223042 | 83 | 0 | 1.0 | 8.0 | 0.00 | 0.00 | 0.00 | 20 | 1004.6 |
| 20260504222519 | 83 | 0 | 0.0 | 11.0 | 0.00 | 0.00 | 0.00 | 21 | 1004.7 |
| 20260504222022 | 83 | 327 | 1.0 | 11.0 | 0.00 | 0.00 | 0.00 | 22 | 1004.8 |
| 20260504221550 | 84 | 315 | 2.0 | 10.0 | 0.00 | 0.00 | 0.00 | 21 | 1004.7 |
| 20260504221018 | 83 | 0 | 1.0 | 9.0 | 0.00 | 0.00 | 0.00 | 22 | 1004.8 |
| 20260504220520 | 83 | 0 | 0.0 | 10.0 | 0.00 | 0.00 | 0.00 | 22 | 1004.8 |
| 20260504220038 | 83 | 0 | 0.0 | 10.0 | 0.00 | 0.00 | 0.00 | 22 | 1005.0 |
| 20260504215520 | 83 | 0 | 0.0 | 11.0 | 0.00 | 0.00 | 0.00 | 24 | 1005.1 |
| 20260504215020 | 83 | 0 | 2.0 | 11.0 | 0.00 | 0.00 | 0.00 | 24 | 1005.2 |
| 20260504214537 | 83 | 0 | 0.0 | 8.0 | 0.00 | 0.00 | 0.00 | 23 | 1005.1 |
| 20260504214020 | 83 | 0 | 0.0 | 8.0 | 0.00 | 0.00 | 0.00 | 24 | 1005.2 |
| 20260504213521 | 82 | 0 | 0.0 | 8.0 | 0.00 | 0.00 | 0.00 | 24 | 1005.4 |